sensor_id;sensor_type;location;lat;lon;timestamp;P1;durP1;ratioP1;P2;durP2;ratioP2
72920;SDS011;61064;51.654;5.476;2022-07-17T00:01:37;8.90;;;1.70;;
72920;SDS011;61064;51.654;5.476;2022-07-17T00:04:02;7.60;;;1.60;;
72920;SDS011;61064;51.654;5.476;2022-07-17T00:06:27;12.47;;;2.03;;
72920;SDS011;61064;51.654;5.476;2022-07-17T00:08:53;10.10;;;1.60;;
72920;SDS011;61064;51.654;5.476;2022-07-17T00:11:18;8.77;;;1.63;;
72920;SDS011;61064;51.654;5.476;2022-07-17T00:13:43;7.67;;;2.17;;
72920;SDS011;61064;51.654;5.476;2022-07-17T00:16:09;8.17;;;2.03;;
72920;SDS011;61064;51.654;5.476;2022-07-17T00:18:34;7.87;;;1.80;;
72920;SDS011;61064;51.654;5.476;2022-07-17T00:21:00;9.73;;;1.97;;
72920;SDS011;61064;51.654;5.476;2022-07-17T00:23:25;8.87;;;1.77;;
72920;SDS011;61064;51.654;5.476;2022-07-17T00:25:50;7.63;;;1.73;;
72920;SDS011;61064;51.654;5.476;2022-07-17T00:28:16;9.10;;;1.77;;
72920;SDS011;61064;51.654;5.476;2022-07-17T00:30:41;6.83;;;1.40;;
72920;SDS011;61064;51.654;5.476;2022-07-17T00:33:07;7.77;;;2.27;;
72920;SDS011;61064;51.654;5.476;2022-07-17T00:35:32;6.75;;;1.88;;
72920;SDS011;61064;51.654;5.476;2022-07-17T00:37:58;6.43;;;1.60;;
72920;SDS011;61064;51.654;5.476;2022-07-17T00:40:23;7.90;;;1.67;;
72920;SDS011;61064;51.654;5.476;2022-07-17T00:42:50;7.22;;;1.80;;
72920;SDS011;61064;51.654;5.476;2022-07-17T00:45:16;9.15;;;1.98;;
72920;SDS011;61064;51.654;5.476;2022-07-17T00:47:49;7.57;;;1.80;;
72920;SDS011;61064;51.654;5.476;2022-07-17T00:50:19;9.65;;;2.10;;
72920;SDS011;61064;51.654;5.476;2022-07-17T00:52:46;7.13;;;1.80;;
72920;SDS011;61064;51.654;5.476;2022-07-17T00:55:12;7.33;;;1.80;;
72920;SDS011;61064;51.654;5.476;2022-07-17T00:57:38;10.05;;;2.15;;
72920;SDS011;61064;51.654;5.476;2022-07-17T01:00:05;8.10;;;2.13;;
72920;SDS011;61064;51.654;5.476;2022-07-17T01:02:35;7.78;;;2.55;;
72920;SDS011;61064;51.654;5.476;2022-07-17T01:05:02;8.35;;;2.05;;
72920;SDS011;61064;51.654;5.476;2022-07-17T01:07:28;11.65;;;2.10;;
72920;SDS011;61064;51.654;5.476;2022-07-17T01:09:54;10.00;;;2.00;;
72920;SDS011;61064;51.654;5.476;2022-07-17T01:12:19;7.03;;;1.90;;
72920;SDS011;61064;51.654;5.476;2022-07-17T01:14:46;7.80;;;2.00;;
72920;SDS011;61064;51.654;5.476;2022-07-17T01:17:12;8.90;;;2.20;;
72920;SDS011;61064;51.654;5.476;2022-07-17T01:19:37;10.25;;;2.13;;
72920;SDS011;61064;51.654;5.476;2022-07-17T01:22:03;8.60;;;2.10;;
72920;SDS011;61064;51.654;5.476;2022-07-17T01:24:28;8.50;;;2.43;;
72920;SDS011;61064;51.654;5.476;2022-07-17T01:26:54;9.80;;;2.20;;
72920;SDS011;61064;51.654;5.476;2022-07-17T01:29:19;5.93;;;2.10;;
72920;SDS011;61064;51.654;5.476;2022-07-17T01:31:44;10.70;;;2.20;;
72920;SDS011;61064;51.654;5.476;2022-07-17T01:34:10;9.00;;;2.23;;
72920;SDS011;61064;51.654;5.476;2022-07-17T01:36:40;7.32;;;2.17;;
72920;SDS011;61064;51.654;5.476;2022-07-17T01:39:06;7.78;;;2.13;;
72920;SDS011;61064;51.654;5.476;2022-07-17T01:41:32;10.03;;;2.20;;
72920;SDS011;61064;51.654;5.476;2022-07-17T01:43:57;8.73;;;2.28;;
72920;SDS011;61064;51.654;5.476;2022-07-17T01:46:26;8.27;;;2.35;;
72920;SDS011;61064;51.654;5.476;2022-07-17T01:48:52;10.17;;;2.10;;
72920;SDS011;61064;51.654;5.476;2022-07-17T01:51:17;9.13;;;2.20;;
72920;SDS011;61064;51.654;5.476;2022-07-17T01:53:42;7.03;;;2.17;;
72920;SDS011;61064;51.654;5.476;2022-07-17T01:56:08;7.90;;;2.37;;
72920;SDS011;61064;51.654;5.476;2022-07-17T01:58:33;6.70;;;2.00;;
72920;SDS011;61064;51.654;5.476;2022-07-17T02:00:59;9.43;;;2.40;;
72920;SDS011;61064;51.654;5.476;2022-07-17T02:03:24;7.43;;;2.30;;
72920;SDS011;61064;51.654;5.476;2022-07-17T02:05:50;8.40;;;2.00;;
72920;SDS011;61064;51.654;5.476;2022-07-17T02:08:15;7.70;;;1.87;;
72920;SDS011;61064;51.654;5.476;2022-07-17T02:10:41;6.30;;;2.00;;
72920;SDS011;61064;51.654;5.476;2022-07-17T02:13:06;7.37;;;2.00;;
72920;SDS011;61064;51.654;5.476;2022-07-17T02:15:31;8.43;;;2.10;;
72920;SDS011;61064;51.654;5.476;2022-07-17T02:17:57;8.65;;;2.30;;
72920;SDS011;61064;51.654;5.476;2022-07-17T02:20:23;8.00;;;2.43;;
72920;SDS011;61064;51.654;5.476;2022-07-17T02:22:48;7.30;;;2.25;;
72920;SDS011;61064;51.654;5.476;2022-07-17T02:25:14;7.90;;;2.10;;
72920;SDS011;61064;51.654;5.476;2022-07-17T02:27:40;7.20;;;2.60;;
72920;SDS011;61064;51.654;5.476;2022-07-17T02:30:13;11.85;;;2.50;;
72920;SDS011;61064;51.654;5.476;2022-07-17T02:32:40;8.40;;;2.35;;
72920;SDS011;61064;51.654;5.476;2022-07-17T02:35:06;7.15;;;2.03;;
72920;SDS011;61064;51.654;5.476;2022-07-17T02:37:32;8.40;;;2.40;;
72920;SDS011;61064;51.654;5.476;2022-07-17T02:39:58;12.43;;;2.40;;
72920;SDS011;61064;51.654;5.476;2022-07-17T02:42:24;9.00;;;2.30;;
72920;SDS011;61064;51.654;5.476;2022-07-17T02:44:51;8.48;;;2.08;;
72920;SDS011;61064;51.654;5.476;2022-07-17T02:47:25;9.43;;;2.20;;
72920;SDS011;61064;51.654;5.476;2022-07-17T02:49:54;9.27;;;2.20;;
72920;SDS011;61064;51.654;5.476;2022-07-17T02:52:26;9.43;;;2.20;;
72920;SDS011;61064;51.654;5.476;2022-07-17T02:54:53;8.32;;;2.00;;
72920;SDS011;61064;51.654;5.476;2022-07-17T02:57:18;8.93;;;2.25;;
72920;SDS011;61064;51.654;5.476;2022-07-17T02:59:44;7.10;;;2.10;;
72920;SDS011;61064;51.654;5.476;2022-07-17T03:02:10;8.23;;;2.25;;
72920;SDS011;61064;51.654;5.476;2022-07-17T03:04:39;7.45;;;2.45;;
72920;SDS011;61064;51.654;5.476;2022-07-17T03:07:04;8.03;;;2.50;;
72920;SDS011;61064;51.654;5.476;2022-07-17T03:09:30;8.53;;;2.27;;
72920;SDS011;61064;51.654;5.476;2022-07-17T03:11:56;7.88;;;2.50;;
72920;SDS011;61064;51.654;5.476;2022-07-17T03:14:21;8.00;;;2.33;;
72920;SDS011;61064;51.654;5.476;2022-07-17T03:16:47;6.88;;;2.17;;
72920;SDS011;61064;51.654;5.476;2022-07-17T03:19:12;7.67;;;2.10;;
72920;SDS011;61064;51.654;5.476;2022-07-17T03:21:37;7.07;;;2.20;;
72920;SDS011;61064;51.654;5.476;2022-07-17T03:24:03;9.83;;;2.07;;
72920;SDS011;61064;51.654;5.476;2022-07-17T03:26:29;9.60;;;2.10;;
72920;SDS011;61064;51.654;5.476;2022-07-17T03:28:54;9.37;;;2.37;;
72920;SDS011;61064;51.654;5.476;2022-07-17T03:31:19;8.23;;;2.50;;
72920;SDS011;61064;51.654;5.476;2022-07-17T03:33:45;8.63;;;2.40;;
72920;SDS011;61064;51.654;5.476;2022-07-17T03:36:10;7.70;;;2.20;;
72920;SDS011;61064;51.654;5.476;2022-07-17T03:38:35;8.88;;;2.50;;
72920;SDS011;61064;51.654;5.476;2022-07-17T03:41:01;7.93;;;2.43;;
72920;SDS011;61064;51.654;5.476;2022-07-17T03:43:26;12.27;;;2.27;;
72920;SDS011;61064;51.654;5.476;2022-07-17T03:45:51;9.50;;;2.70;;
72920;SDS011;61064;51.654;5.476;2022-07-17T03:48:17;7.27;;;2.30;;
72920;SDS011;61064;51.654;5.476;2022-07-17T03:50:43;9.57;;;2.70;;
72920;SDS011;61064;51.654;5.476;2022-07-17T03:53:08;6.23;;;2.20;;
72920;SDS011;61064;51.654;5.476;2022-07-17T03:55:33;8.40;;;2.43;;
72920;SDS011;61064;51.654;5.476;2022-07-17T03:57:59;8.20;;;2.33;;
72920;SDS011;61064;51.654;5.476;2022-07-17T04:00:24;8.07;;;2.40;;
72920;SDS011;61064;51.654;5.476;2022-07-17T04:02:50;10.03;;;3.00;;
72920;SDS011;61064;51.654;5.476;2022-07-17T04:05:15;11.30;;;2.95;;
72920;SDS011;61064;51.654;5.476;2022-07-17T04:07:41;9.50;;;2.70;;
72920;SDS011;61064;51.654;5.476;2022-07-17T04:10:08;8.47;;;2.60;;
72920;SDS011;61064;51.654;5.476;2022-07-17T04:12:35;6.88;;;2.42;;
72920;SDS011;61064;51.654;5.476;2022-07-17T04:15:01;10.38;;;2.92;;
72920;SDS011;61064;51.654;5.476;2022-07-17T04:17:26;8.50;;;2.67;;
72920;SDS011;61064;51.654;5.476;2022-07-17T04:19:52;9.77;;;2.50;;
72920;SDS011;61064;51.654;5.476;2022-07-17T04:22:17;9.60;;;2.87;;
72920;SDS011;61064;51.654;5.476;2022-07-17T04:24:43;8.60;;;2.47;;
72920;SDS011;61064;51.654;5.476;2022-07-17T04:27:09;11.45;;;2.75;;
72920;SDS011;61064;51.654;5.476;2022-07-17T04:29:35;10.90;;;3.10;;
72920;SDS011;61064;51.654;5.476;2022-07-17T04:32:01;7.30;;;2.90;;
72920;SDS011;61064;51.654;5.476;2022-07-17T04:34:26;8.70;;;2.90;;
72920;SDS011;61064;51.654;5.476;2022-07-17T04:36:52;9.20;;;2.70;;
72920;SDS011;61064;51.654;5.476;2022-07-17T04:39:17;8.93;;;2.80;;
72920;SDS011;61064;51.654;5.476;2022-07-17T04:41:43;12.77;;;3.10;;
72920;SDS011;61064;51.654;5.476;2022-07-17T04:44:08;11.30;;;2.70;;
72920;SDS011;61064;51.654;5.476;2022-07-17T04:46:34;10.33;;;2.97;;
72920;SDS011;61064;51.654;5.476;2022-07-17T04:48:59;10.10;;;3.00;;
72920;SDS011;61064;51.654;5.476;2022-07-17T04:51:24;9.33;;;2.83;;
72920;SDS011;61064;51.654;5.476;2022-07-17T04:53:50;12.33;;;3.73;;
72920;SDS011;61064;51.654;5.476;2022-07-17T04:56:15;9.38;;;2.70;;
72920;SDS011;61064;51.654;5.476;2022-07-17T04:58:41;8.73;;;3.10;;
72920;SDS011;61064;51.654;5.476;2022-07-17T05:01:06;9.37;;;2.87;;
72920;SDS011;61064;51.654;5.476;2022-07-17T05:03:31;8.60;;;2.87;;
72920;SDS011;61064;51.654;5.476;2022-07-17T05:05:58;8.27;;;2.65;;
72920;SDS011;61064;51.654;5.476;2022-07-17T05:08:24;11.87;;;2.80;;
72920;SDS011;61064;51.654;5.476;2022-07-17T05:10:49;8.80;;;2.70;;
72920;SDS011;61064;51.654;5.476;2022-07-17T05:13:15;7.47;;;2.90;;
72920;SDS011;61064;51.654;5.476;2022-07-17T05:15:40;10.27;;;2.70;;
72920;SDS011;61064;51.654;5.476;2022-07-17T05:18:05;10.53;;;3.00;;
72920;SDS011;61064;51.654;5.476;2022-07-17T05:20:31;6.55;;;2.45;;
72920;SDS011;61064;51.654;5.476;2022-07-17T05:22:56;11.60;;;3.00;;
72920;SDS011;61064;51.654;5.476;2022-07-17T05:25:22;8.40;;;2.90;;
72920;SDS011;61064;51.654;5.476;2022-07-17T05:27:48;11.68;;;2.75;;
72920;SDS011;61064;51.654;5.476;2022-07-17T05:30:13;10.10;;;3.20;;
72920;SDS011;61064;51.654;5.476;2022-07-17T05:32:39;9.63;;;2.80;;
72920;SDS011;61064;51.654;5.476;2022-07-17T05:35:04;10.50;;;2.90;;
72920;SDS011;61064;51.654;5.476;2022-07-17T05:37:30;7.80;;;2.90;;
72920;SDS011;61064;51.654;5.476;2022-07-17T05:39:55;6.77;;;2.67;;
72920;SDS011;61064;51.654;5.476;2022-07-17T05:42:21;8.87;;;3.03;;
72920;SDS011;61064;51.654;5.476;2022-07-17T05:44:46;8.50;;;2.93;;
72920;SDS011;61064;51.654;5.476;2022-07-17T05:47:11;8.50;;;2.80;;
72920;SDS011;61064;51.654;5.476;2022-07-17T05:49:37;12.77;;;2.90;;
72920;SDS011;61064;51.654;5.476;2022-07-17T05:52:02;10.77;;;3.50;;
72920;SDS011;61064;51.654;5.476;2022-07-17T05:54:27;10.47;;;2.83;;
72920;SDS011;61064;51.654;5.476;2022-07-17T05:56:53;10.97;;;2.90;;
72920;SDS011;61064;51.654;5.476;2022-07-17T05:59:18;10.32;;;2.63;;
72920;SDS011;61064;51.654;5.476;2022-07-17T06:01:44;9.27;;;2.70;;
72920;SDS011;61064;51.654;5.476;2022-07-17T06:04:09;9.97;;;2.60;;
72920;SDS011;61064;51.654;5.476;2022-07-17T06:06:34;8.57;;;2.53;;
72920;SDS011;61064;51.654;5.476;2022-07-17T06:09:00;13.93;;;2.77;;
72920;SDS011;61064;51.654;5.476;2022-07-17T06:11:25;9.50;;;2.70;;
72920;SDS011;61064;51.654;5.476;2022-07-17T06:13:51;6.53;;;2.30;;
72920;SDS011;61064;51.654;5.476;2022-07-17T06:16:16;7.47;;;2.57;;
72920;SDS011;61064;51.654;5.476;2022-07-17T06:18:42;9.50;;;2.80;;
72920;SDS011;61064;51.654;5.476;2022-07-17T06:21:07;10.73;;;2.63;;
72920;SDS011;61064;51.654;5.476;2022-07-17T06:23:32;8.20;;;2.60;;
72920;SDS011;61064;51.654;5.476;2022-07-17T06:25:58;11.57;;;2.60;;
72920;SDS011;61064;51.654;5.476;2022-07-17T06:28:26;9.95;;;2.50;;
72920;SDS011;61064;51.654;5.476;2022-07-17T06:30:51;8.80;;;2.43;;
72920;SDS011;61064;51.654;5.476;2022-07-17T06:33:17;11.43;;;2.97;;
72920;SDS011;61064;51.654;5.476;2022-07-17T06:35:42;8.87;;;2.70;;
72920;SDS011;61064;51.654;5.476;2022-07-17T06:38:08;11.13;;;3.00;;
72920;SDS011;61064;51.654;5.476;2022-07-17T06:40:35;8.75;;;2.67;;
72920;SDS011;61064;51.654;5.476;2022-07-17T06:43:01;9.80;;;2.67;;
72920;SDS011;61064;51.654;5.476;2022-07-17T06:45:26;9.17;;;2.80;;
72920;SDS011;61064;51.654;5.476;2022-07-17T06:47:51;9.73;;;3.10;;
72920;SDS011;61064;51.654;5.476;2022-07-17T06:50:17;8.70;;;3.07;;
72920;SDS011;61064;51.654;5.476;2022-07-17T06:52:45;11.63;;;3.30;;
72920;SDS011;61064;51.654;5.476;2022-07-17T06:55:10;10.57;;;2.87;;
72920;SDS011;61064;51.654;5.476;2022-07-17T06:57:36;8.23;;;2.90;;
72920;SDS011;61064;51.654;5.476;2022-07-17T07:00:01;8.10;;;2.50;;
72920;SDS011;61064;51.654;5.476;2022-07-17T07:02:27;9.05;;;2.42;;
72920;SDS011;61064;51.654;5.476;2022-07-17T07:04:53;9.50;;;2.70;;
72920;SDS011;61064;51.654;5.476;2022-07-17T07:07:18;10.40;;;2.93;;
72920;SDS011;61064;51.654;5.476;2022-07-17T07:09:43;10.70;;;2.97;;
72920;SDS011;61064;51.654;5.476;2022-07-17T07:12:09;9.97;;;2.73;;
72920;SDS011;61064;51.654;5.476;2022-07-17T07:14:34;8.40;;;2.40;;
72920;SDS011;61064;51.654;5.476;2022-07-17T07:16:59;10.07;;;2.57;;
72920;SDS011;61064;51.654;5.476;2022-07-17T07:19:25;8.43;;;2.10;;
72920;SDS011;61064;51.654;5.476;2022-07-17T07:21:50;7.87;;;2.33;;
72920;SDS011;61064;51.654;5.476;2022-07-17T07:24:15;9.63;;;2.33;;
72920;SDS011;61064;51.654;5.476;2022-07-17T07:26:40;7.07;;;1.63;;
72920;SDS011;61064;51.654;5.476;2022-07-17T07:29:06;10.50;;;2.20;;
72920;SDS011;61064;51.654;5.476;2022-07-17T07:31:31;9.17;;;1.97;;
72920;SDS011;61064;51.654;5.476;2022-07-17T07:33:57;8.32;;;2.10;;
72920;SDS011;61064;51.654;5.476;2022-07-17T07:36:23;8.07;;;2.13;;
72920;SDS011;61064;51.654;5.476;2022-07-17T07:38:48;11.57;;;2.20;;
72920;SDS011;61064;51.654;5.476;2022-07-17T07:41:13;8.10;;;1.77;;
72920;SDS011;61064;51.654;5.476;2022-07-17T07:43:39;8.63;;;2.07;;
72920;SDS011;61064;51.654;5.476;2022-07-17T07:46:04;7.50;;;1.90;;
72920;SDS011;61064;51.654;5.476;2022-07-17T07:48:30;9.80;;;1.77;;
72920;SDS011;61064;51.654;5.476;2022-07-17T07:50:55;6.93;;;1.53;;
72920;SDS011;61064;51.654;5.476;2022-07-17T07:53:20;10.55;;;2.03;;
72920;SDS011;61064;51.654;5.476;2022-07-17T07:55:46;11.80;;;2.50;;
72920;SDS011;61064;51.654;5.476;2022-07-17T07:58:12;9.30;;;2.63;;
72920;SDS011;61064;51.654;5.476;2022-07-17T08:00:42;8.77;;;2.28;;
72920;SDS011;61064;51.654;5.476;2022-07-17T08:03:08;6.85;;;2.03;;
72920;SDS011;61064;51.654;5.476;2022-07-17T08:05:34;7.80;;;1.80;;
72920;SDS011;61064;51.654;5.476;2022-07-17T08:07:59;7.23;;;1.93;;
72920;SDS011;61064;51.654;5.476;2022-07-17T08:10:25;6.90;;;1.50;;
72920;SDS011;61064;51.654;5.476;2022-07-17T08:12:51;8.47;;;1.60;;
72920;SDS011;61064;51.654;5.476;2022-07-17T08:15:18;9.43;;;1.65;;
72920;SDS011;61064;51.654;5.476;2022-07-17T08:17:44;8.73;;;1.10;;
72920;SDS011;61064;51.654;5.476;2022-07-17T08:20:11;7.90;;;1.15;;
72920;SDS011;61064;51.654;5.476;2022-07-17T08:22:37;7.07;;;1.27;;
72920;SDS011;61064;51.654;5.476;2022-07-17T08:25:03;7.77;;;1.20;;
72920;SDS011;61064;51.654;5.476;2022-07-17T08:27:34;8.27;;;1.40;;
72920;SDS011;61064;51.654;5.476;2022-07-17T08:30:03;8.33;;;1.67;;
72920;SDS011;61064;51.654;5.476;2022-07-17T08:32:29;9.20;;;1.48;;
72920;SDS011;61064;51.654;5.476;2022-07-17T08:34:55;6.32;;;1.63;;
72920;SDS011;61064;51.654;5.476;2022-07-17T08:37:20;6.97;;;1.40;;
72920;SDS011;61064;51.654;5.476;2022-07-17T08:39:45;6.33;;;1.60;;
72920;SDS011;61064;51.654;5.476;2022-07-17T08:42:11;11.47;;;1.73;;
72920;SDS011;61064;51.654;5.476;2022-07-17T08:44:41;8.02;;;1.67;;
72920;SDS011;61064;51.654;5.476;2022-07-17T08:47:06;6.13;;;1.50;;
72920;SDS011;61064;51.654;5.476;2022-07-17T08:49:32;6.78;;;1.90;;
72920;SDS011;61064;51.654;5.476;2022-07-17T08:52:02;9.70;;;1.83;;
72920;SDS011;61064;51.654;5.476;2022-07-17T08:54:29;7.03;;;1.80;;
72920;SDS011;61064;51.654;5.476;2022-07-17T08:56:54;7.37;;;1.37;;
72920;SDS011;61064;51.654;5.476;2022-07-17T08:59:19;8.03;;;1.70;;
72920;SDS011;61064;51.654;5.476;2022-07-17T09:01:45;7.67;;;1.40;;
72920;SDS011;61064;51.654;5.476;2022-07-17T09:04:10;8.43;;;1.70;;
72920;SDS011;61064;51.654;5.476;2022-07-17T09:06:36;9.97;;;1.50;;
72920;SDS011;61064;51.654;5.476;2022-07-17T09:09:02;7.05;;;1.40;;
72920;SDS011;61064;51.654;5.476;2022-07-17T09:11:28;6.20;;;1.30;;
72920;SDS011;61064;51.654;5.476;2022-07-17T09:13:54;7.97;;;1.60;;
72920;SDS011;61064;51.654;5.476;2022-07-17T09:16:20;9.35;;;1.52;;
72920;SDS011;61064;51.654;5.476;2022-07-17T09:18:47;9.87;;;1.20;;
72920;SDS011;61064;51.654;5.476;2022-07-17T09:21:24;6.75;;;1.20;;
72920;SDS011;61064;51.654;5.476;2022-07-17T09:23:58;8.87;;;1.50;;
72920;SDS011;61064;51.654;5.476;2022-07-17T09:26:30;7.90;;;1.30;;
72920;SDS011;61064;51.654;5.476;2022-07-17T09:29:00;7.00;;;1.30;;
72920;SDS011;61064;51.654;5.476;2022-07-17T09:31:26;8.95;;;1.33;;
72920;SDS011;61064;51.654;5.476;2022-07-17T09:33:54;7.43;;;1.60;;
72920;SDS011;61064;51.654;5.476;2022-07-17T09:36:20;6.70;;;1.70;;
72920;SDS011;61064;51.654;5.476;2022-07-17T09:38:46;8.30;;;1.25;;
72920;SDS011;61064;51.654;5.476;2022-07-17T09:41:17;8.50;;;1.63;;
72920;SDS011;61064;51.654;5.476;2022-07-17T09:43:46;7.93;;;1.43;;
72920;SDS011;61064;51.654;5.476;2022-07-17T09:46:21;7.50;;;1.40;;
72920;SDS011;61064;51.654;5.476;2022-07-17T09:48:49;7.85;;;1.35;;
72920;SDS011;61064;51.654;5.476;2022-07-17T09:51:27;9.10;;;2.50;;
72920;SDS011;61064;51.654;5.476;2022-07-17T09:53:57;7.57;;;1.30;;
72920;SDS011;61064;51.654;5.476;2022-07-17T09:56:25;5.27;;;1.20;;
72920;SDS011;61064;51.654;5.476;2022-07-17T09:58:59;6.68;;;1.20;;
72920;SDS011;61064;51.654;5.476;2022-07-17T10:01:30;7.53;;;1.40;;
72920;SDS011;61064;51.654;5.476;2022-07-17T10:03:56;8.55;;;1.40;;
72920;SDS011;61064;51.654;5.476;2022-07-17T10:06:22;8.20;;;1.57;;
72920;SDS011;61064;51.654;5.476;2022-07-17T10:08:49;9.13;;;1.65;;
72920;SDS011;61064;51.654;5.476;2022-07-17T10:11:16;6.88;;;1.30;;
72920;SDS011;61064;51.654;5.476;2022-07-17T10:13:46;8.60;;;1.40;;
72920;SDS011;61064;51.654;5.476;2022-07-17T10:16:12;6.63;;;1.37;;
72920;SDS011;61064;51.654;5.476;2022-07-17T10:23:34;6.35;;;1.17;;
72920;SDS011;61064;51.654;5.476;2022-07-17T10:26:00;5.70;;;1.50;;
72920;SDS011;61064;51.654;5.476;2022-07-17T10:28:37;8.63;;;1.30;;
72920;SDS011;61064;51.654;5.476;2022-07-17T10:31:22;6.28;;;1.30;;
72920;SDS011;61064;51.654;5.476;2022-07-17T10:33:56;5.95;;;1.27;;
72920;SDS011;61064;51.654;5.476;2022-07-17T10:39:14;6.87;;;1.30;;
72920;SDS011;61064;51.654;5.476;2022-07-17T10:41:41;8.93;;;4.78;;
72920;SDS011;61064;51.654;5.476;2022-07-17T10:44:07;9.20;;;1.90;;
72920;SDS011;61064;51.654;5.476;2022-07-17T10:46:32;7.43;;;1.30;;
72920;SDS011;61064;51.654;5.476;2022-07-17T10:48:59;7.30;;;1.40;;
72920;SDS011;61064;51.654;5.476;2022-07-17T10:51:28;11.37;;;1.70;;
72920;SDS011;61064;51.654;5.476;2022-07-17T10:53:57;8.57;;;1.70;;
72920;SDS011;61064;51.654;5.476;2022-07-17T10:56:26;7.93;;;1.63;;
72920;SDS011;61064;51.654;5.476;2022-07-17T10:58:52;7.28;;;1.85;;
72920;SDS011;61064;51.654;5.476;2022-07-17T11:01:21;9.68;;;2.00;;
72920;SDS011;61064;51.654;5.476;2022-07-17T11:03:50;8.63;;;1.40;;
72920;SDS011;61064;51.654;5.476;2022-07-17T11:06:27;8.95;;;1.50;;
72920;SDS011;61064;51.654;5.476;2022-07-17T11:08:53;6.60;;;1.55;;
72920;SDS011;61064;51.654;5.476;2022-07-17T11:11:20;8.10;;;1.65;;
72920;SDS011;61064;51.654;5.476;2022-07-17T11:13:47;7.70;;;1.55;;
72920;SDS011;61064;51.654;5.476;2022-07-17T11:21:47;8.27;;;1.50;;
72920;SDS011;61064;51.654;5.476;2022-07-17T11:24:14;10.02;;;2.47;;
72920;SDS011;61064;51.654;5.476;2022-07-17T11:26:41;8.07;;;2.03;;
72920;SDS011;61064;51.654;5.476;2022-07-17T11:29:07;10.10;;;1.50;;
72920;SDS011;61064;51.654;5.476;2022-07-17T11:31:33;5.63;;;1.30;;
72920;SDS011;61064;51.654;5.476;2022-07-17T11:33:59;7.03;;;1.37;;
72920;SDS011;61064;51.654;5.476;2022-07-17T11:36:31;6.60;;;1.20;;
72920;SDS011;61064;51.654;5.476;2022-07-17T11:38:59;7.07;;;1.70;;
72920;SDS011;61064;51.654;5.476;2022-07-17T11:41:31;8.40;;;1.50;;
72920;SDS011;61064;51.654;5.476;2022-07-17T11:44:02;9.57;;;1.52;;
72920;SDS011;61064;51.654;5.476;2022-07-17T11:46:30;7.38;;;1.38;;
72920;SDS011;61064;51.654;5.476;2022-07-17T11:48:58;6.78;;;1.45;;
72920;SDS011;61064;51.654;5.476;2022-07-17T11:54:20;7.72;;;1.30;;
72920;SDS011;61064;51.654;5.476;2022-07-17T11:56:55;6.03;;;1.40;;
72920;SDS011;61064;51.654;5.476;2022-07-17T11:59:29;7.00;;;1.30;;
72920;SDS011;61064;51.654;5.476;2022-07-17T12:02:06;5.90;;;1.27;;
72920;SDS011;61064;51.654;5.476;2022-07-17T12:04:35;6.95;;;1.50;;
72920;SDS011;61064;51.654;5.476;2022-07-17T12:07:01;6.13;;;1.23;;
72920;SDS011;61064;51.654;5.476;2022-07-17T12:09:28;5.97;;;1.05;;
72920;SDS011;61064;51.654;5.476;2022-07-17T12:12:03;5.70;;;1.23;;
72920;SDS011;61064;51.654;5.476;2022-07-17T12:14:29;6.38;;;1.40;;
72920;SDS011;61064;51.654;5.476;2022-07-17T12:17:02;5.43;;;1.10;;
72920;SDS011;61064;51.654;5.476;2022-07-17T12:19:29;6.78;;;1.15;;
72920;SDS011;61064;51.654;5.476;2022-07-17T12:22:02;8.18;;;1.55;;
72920;SDS011;61064;51.654;5.476;2022-07-17T12:26:58;8.05;;;1.52;;
72920;SDS011;61064;51.654;5.476;2022-07-17T12:29:27;7.00;;;1.30;;
72920;SDS011;61064;51.654;5.476;2022-07-17T12:34:48;7.78;;;1.50;;
72920;SDS011;61064;51.654;5.476;2022-07-17T12:37:15;9.10;;;1.30;;
72920;SDS011;61064;51.654;5.476;2022-07-17T12:39:45;5.97;;;1.23;;
72920;SDS011;61064;51.654;5.476;2022-07-17T12:42:14;7.03;;;1.33;;
72920;SDS011;61064;51.654;5.476;2022-07-17T12:44:40;8.57;;;1.40;;
72920;SDS011;61064;51.654;5.476;2022-07-17T12:47:10;7.47;;;1.20;;
72920;SDS011;61064;51.654;5.476;2022-07-17T12:49:36;8.13;;;1.10;;
72920;SDS011;61064;51.654;5.476;2022-07-17T12:52:02;7.85;;;1.40;;
72920;SDS011;61064;51.654;5.476;2022-07-17T12:54:27;6.68;;;1.40;;
72920;SDS011;61064;51.654;5.476;2022-07-17T12:56:53;6.20;;;1.50;;
72920;SDS011;61064;51.654;5.476;2022-07-17T12:59:18;7.63;;;1.30;;
72920;SDS011;61064;51.654;5.476;2022-07-17T13:01:44;7.95;;;1.40;;
72920;SDS011;61064;51.654;5.476;2022-07-17T13:04:10;8.00;;;1.40;;
72920;SDS011;61064;51.654;5.476;2022-07-17T13:06:36;8.63;;;1.40;;
72920;SDS011;61064;51.654;5.476;2022-07-17T13:09:02;6.43;;;1.33;;
72920;SDS011;61064;51.654;5.476;2022-07-17T13:11:27;6.32;;;1.20;;
72920;SDS011;61064;51.654;5.476;2022-07-17T13:13:53;8.27;;;1.50;;
72920;SDS011;61064;51.654;5.476;2022-07-17T13:16:18;5.37;;;1.07;;
72920;SDS011;61064;51.654;5.476;2022-07-17T13:18:44;7.67;;;1.40;;
72920;SDS011;61064;51.654;5.476;2022-07-17T13:21:10;6.22;;;1.30;;
72920;SDS011;61064;51.654;5.476;2022-07-17T13:23:36;7.03;;;1.20;;
72920;SDS011;61064;51.654;5.476;2022-07-17T13:26:02;5.95;;;1.10;;
72920;SDS011;61064;51.654;5.476;2022-07-17T13:28:28;6.95;;;1.67;;
72920;SDS011;61064;51.654;5.476;2022-07-17T13:30:54;5.60;;;1.40;;
72920;SDS011;61064;51.654;5.476;2022-07-17T13:33:19;6.13;;;1.05;;
72920;SDS011;61064;51.654;5.476;2022-07-17T13:35:45;7.13;;;1.30;;
72920;SDS011;61064;51.654;5.476;2022-07-17T13:38:10;4.77;;;1.30;;
72920;SDS011;61064;51.654;5.476;2022-07-17T13:40:36;5.63;;;1.05;;
72920;SDS011;61064;51.654;5.476;2022-07-17T13:43:02;5.93;;;1.40;;
72920;SDS011;61064;51.654;5.476;2022-07-17T13:45:28;8.00;;;1.40;;
72920;SDS011;61064;51.654;5.476;2022-07-17T13:47:54;6.00;;;1.10;;
72920;SDS011;61064;51.654;5.476;2022-07-17T13:50:20;6.67;;;1.30;;
72920;SDS011;61064;51.654;5.476;2022-07-17T13:52:45;6.50;;;1.27;;
72920;SDS011;61064;51.654;5.476;2022-07-17T13:55:11;7.50;;;1.38;;
72920;SDS011;61064;51.654;5.476;2022-07-17T13:57:37;7.03;;;1.53;;
72920;SDS011;61064;51.654;5.476;2022-07-17T14:00:03;5.83;;;1.10;;
72920;SDS011;61064;51.654;5.476;2022-07-17T14:02:29;7.65;;;1.50;;
72920;SDS011;61064;51.654;5.476;2022-07-17T14:04:55;4.40;;;1.20;;
72920;SDS011;61064;51.654;5.476;2022-07-17T14:07:20;5.88;;;1.17;;
72920;SDS011;61064;51.654;5.476;2022-07-17T14:09:46;6.47;;;1.37;;
72920;SDS011;61064;51.654;5.476;2022-07-17T14:12:11;6.47;;;1.00;;
72920;SDS011;61064;51.654;5.476;2022-07-17T14:14:36;7.18;;;1.73;;
72920;SDS011;61064;51.654;5.476;2022-07-17T14:17:02;7.47;;;1.37;;
72920;SDS011;61064;51.654;5.476;2022-07-17T14:19:27;7.67;;;1.33;;
72920;SDS011;61064;51.654;5.476;2022-07-17T14:21:53;6.63;;;1.40;;
72920;SDS011;61064;51.654;5.476;2022-07-17T14:24:18;6.75;;;1.20;;
72920;SDS011;61064;51.654;5.476;2022-07-17T14:26:43;5.97;;;1.30;;
72920;SDS011;61064;51.654;5.476;2022-07-17T14:29:11;5.40;;;1.20;;
72920;SDS011;61064;51.654;5.476;2022-07-17T14:31:36;5.67;;;1.30;;
72920;SDS011;61064;51.654;5.476;2022-07-17T14:34:02;5.07;;;1.20;;
72920;SDS011;61064;51.654;5.476;2022-07-17T14:36:27;5.93;;;1.30;;
72920;SDS011;61064;51.654;5.476;2022-07-17T14:38:53;5.90;;;1.20;;
72920;SDS011;61064;51.654;5.476;2022-07-17T14:41:18;7.13;;;1.40;;
72920;SDS011;61064;51.654;5.476;2022-07-17T14:43:44;7.53;;;1.27;;
72920;SDS011;61064;51.654;5.476;2022-07-17T14:46:10;6.95;;;1.30;;
72920;SDS011;61064;51.654;5.476;2022-07-17T14:48:35;6.23;;;1.20;;
72920;SDS011;61064;51.654;5.476;2022-07-17T14:51:00;7.20;;;1.20;;
72920;SDS011;61064;51.654;5.476;2022-07-17T14:53:26;6.23;;;1.20;;
72920;SDS011;61064;51.654;5.476;2022-07-17T14:55:51;8.30;;;1.50;;
72920;SDS011;61064;51.654;5.476;2022-07-17T14:58:17;5.63;;;1.30;;
72920;SDS011;61064;51.654;5.476;2022-07-17T15:00:42;6.00;;;1.80;;
72920;SDS011;61064;51.654;5.476;2022-07-17T15:03:08;9.18;;;4.20;;